sensor_id;sensor_type;location;lat;lon;timestamp;P1;durP1;ratioP1;P2;durP2;ratioP2
4646;SDS011;2336;47.822;7.564;2023-03-31T00:01:24;4.67;;;4.00;;
4646;SDS011;2336;47.822;7.564;2023-03-31T00:03:51;4.40;;;4.00;;
4646;SDS011;2336;47.822;7.564;2023-03-31T00:06:27;5.70;;;3.90;;
4646;SDS011;2336;47.822;7.564;2023-03-31T00:08:54;6.50;;;4.47;;
4646;SDS011;2336;47.822;7.564;2023-03-31T00:11:26;8.53;;;4.13;;
4646;SDS011;2336;47.822;7.564;2023-03-31T00:13:53;10.37;;;4.20;;
4646;SDS011;2336;47.822;7.564;2023-03-31T00:16:19;4.30;;;4.00;;
4646;SDS011;2336;47.822;7.564;2023-03-31T00:18:46;7.67;;;4.17;;
4646;SDS011;2336;47.822;7.564;2023-03-31T00:21:15;5.80;;;3.90;;
4646;SDS011;2336;47.822;7.564;2023-03-31T00:23:51;5.80;;;4.50;;
4646;SDS011;2336;47.822;7.564;2023-03-31T00:26:19;8.30;;;4.60;;
4646;SDS011;2336;47.822;7.564;2023-03-31T00:28:47;5.40;;;4.07;;
4646;SDS011;2336;47.822;7.564;2023-03-31T00:31:14;7.30;;;4.60;;
4646;SDS011;2336;47.822;7.564;2023-03-31T00:33:40;6.60;;;4.63;;
4646;SDS011;2336;47.822;7.564;2023-03-31T00:36:07;4.37;;;3.93;;
4646;SDS011;2336;47.822;7.564;2023-03-31T00:38:34;6.60;;;4.30;;
4646;SDS011;2336;47.822;7.564;2023-03-31T00:41:03;7.07;;;4.60;;
4646;SDS011;2336;47.822;7.564;2023-03-31T00:43:31;6.20;;;5.00;;
4646;SDS011;2336;47.822;7.564;2023-03-31T00:45:59;6.83;;;4.53;;
4646;SDS011;2336;47.822;7.564;2023-03-31T00:48:31;7.50;;;5.20;;
4646;SDS011;2336;47.822;7.564;2023-03-31T00:50:58;8.40;;;4.20;;
4646;SDS011;2336;47.822;7.564;2023-03-31T00:53:29;7.57;;;4.80;;
4646;SDS011;2336;47.822;7.564;2023-03-31T00:55:58;8.40;;;4.73;;
4646;SDS011;2336;47.822;7.564;2023-03-31T00:58:31;8.77;;;4.30;;
4646;SDS011;2336;47.822;7.564;2023-03-31T01:00:59;6.20;;;4.20;;
4646;SDS011;2336;47.822;7.564;2023-03-31T01:03:28;5.00;;;4.30;;
4646;SDS011;2336;47.822;7.564;2023-03-31T01:05:59;5.47;;;4.00;;
4646;SDS011;2336;47.822;7.564;2023-03-31T01:08:28;7.00;;;4.30;;
4646;SDS011;2336;47.822;7.564;2023-03-31T01:10:59;6.63;;;4.63;;
4646;SDS011;2336;47.822;7.564;2023-03-31T01:13:30;9.10;;;4.73;;
4646;SDS011;2336;47.822;7.564;2023-03-31T01:15:57;8.10;;;4.60;;
4646;SDS011;2336;47.822;7.564;2023-03-31T01:18:24;6.80;;;4.80;;
4646;SDS011;2336;47.822;7.564;2023-03-31T01:20:59;5.30;;;4.20;;
4646;SDS011;2336;47.822;7.564;2023-03-31T01:23:48;7.67;;;4.80;;
4646;SDS011;2336;47.822;7.564;2023-03-31T01:26:57;4.60;;;4.20;;
4646;SDS011;2336;47.822;7.564;2023-03-31T01:32:33;8.63;;;5.10;;
4646;SDS011;2336;47.822;7.564;2023-03-31T01:35:20;5.97;;;4.90;;
4646;SDS011;2336;47.822;7.564;2023-03-31T01:41:16;5.53;;;5.03;;
4646;SDS011;2336;47.822;7.564;2023-03-31T01:43:56;5.30;;;4.80;;
4646;SDS011;2336;47.822;7.564;2023-03-31T01:46:32;8.20;;;5.63;;
4646;SDS011;2336;47.822;7.564;2023-03-31T01:49:07;8.77;;;4.83;;
4646;SDS011;2336;47.822;7.564;2023-03-31T01:51:42;9.10;;;4.63;;
4646;SDS011;2336;47.822;7.564;2023-03-31T01:54:16;11.83;;;6.47;;
4646;SDS011;2336;47.822;7.564;2023-03-31T01:56:48;5.93;;;4.93;;
4646;SDS011;2336;47.822;7.564;2023-03-31T01:59:18;8.23;;;4.97;;
4646;SDS011;2336;47.822;7.564;2023-03-31T02:01:52;11.43;;;6.50;;
4646;SDS011;2336;47.822;7.564;2023-03-31T02:04:25;9.53;;;5.60;;
4646;SDS011;2336;47.822;7.564;2023-03-31T02:06:58;6.00;;;4.60;;
4646;SDS011;2336;47.822;7.564;2023-03-31T02:09:30;7.83;;;4.70;;
4646;SDS011;2336;47.822;7.564;2023-03-31T02:12:01;5.67;;;4.80;;
4646;SDS011;2336;47.822;7.564;2023-03-31T02:14:31;7.20;;;5.50;;
4646;SDS011;2336;47.822;7.564;2023-03-31T02:16:59;7.20;;;4.60;;
4646;SDS011;2336;47.822;7.564;2023-03-31T02:19:28;11.60;;;6.10;;
4646;SDS011;2336;47.822;7.564;2023-03-31T02:21:58;5.40;;;4.70;;
4646;SDS011;2336;47.822;7.564;2023-03-31T02:24:27;7.83;;;5.37;;
4646;SDS011;2336;47.822;7.564;2023-03-31T02:27:00;6.50;;;5.50;;
4646;SDS011;2336;47.822;7.564;2023-03-31T02:29:32;8.40;;;5.43;;
4646;SDS011;2336;47.822;7.564;2023-03-31T02:32:00;6.20;;;4.87;;
4646;SDS011;2336;47.822;7.564;2023-03-31T02:34:32;9.50;;;6.10;;
4646;SDS011;2336;47.822;7.564;2023-03-31T02:36:58;6.57;;;5.80;;
4646;SDS011;2336;47.822;7.564;2023-03-31T02:39:26;8.23;;;5.10;;
4646;SDS011;2336;47.822;7.564;2023-03-31T02:41:56;6.50;;;5.43;;
4646;SDS011;2336;47.822;7.564;2023-03-31T02:44:24;6.03;;;4.53;;
4646;SDS011;2336;47.822;7.564;2023-03-31T02:46:52;5.93;;;4.97;;
4646;SDS011;2336;47.822;7.564;2023-03-31T02:49:19;4.80;;;4.30;;
4646;SDS011;2336;47.822;7.564;2023-03-31T02:51:49;5.50;;;4.53;;
4646;SDS011;2336;47.822;7.564;2023-03-31T02:54:33;5.40;;;4.90;;
4646;SDS011;2336;47.822;7.564;2023-03-31T02:57:38;6.50;;;4.50;;
4646;SDS011;2336;47.822;7.564;2023-03-31T03:00:28;5.30;;;4.67;;
4646;SDS011;2336;47.822;7.564;2023-03-31T03:03:08;9.03;;;4.90;;
4646;SDS011;2336;47.822;7.564;2023-03-31T03:05:46;15.47;;;4.90;;
4646;SDS011;2336;47.822;7.564;2023-03-31T03:08:21;5.10;;;4.53;;
4646;SDS011;2336;47.822;7.564;2023-03-31T03:10:57;5.57;;;3.90;;
4646;SDS011;2336;47.822;7.564;2023-03-31T03:13:33;4.43;;;4.03;;
4646;SDS011;2336;47.822;7.564;2023-03-31T03:16:09;6.60;;;5.30;;
4646;SDS011;2336;47.822;7.564;2023-03-31T03:18:42;5.90;;;4.87;;
4646;SDS011;2336;47.822;7.564;2023-03-31T03:21:09;13.80;;;4.90;;
4646;SDS011;2336;47.822;7.564;2023-03-31T03:23:36;6.60;;;4.83;;
4646;SDS011;2336;47.822;7.564;2023-03-31T03:26:03;5.00;;;4.50;;
4646;SDS011;2336;47.822;7.564;2023-03-31T03:28:30;6.97;;;4.50;;
4646;SDS011;2336;47.822;7.564;2023-03-31T03:30:57;4.40;;;4.10;;
4646;SDS011;2336;47.822;7.564;2023-03-31T03:33:25;4.60;;;4.00;;
4646;SDS011;2336;47.822;7.564;2023-03-31T03:35:52;9.70;;;4.17;;
4646;SDS011;2336;47.822;7.564;2023-03-31T03:38:18;7.50;;;4.50;;
4646;SDS011;2336;47.822;7.564;2023-03-31T03:40:45;4.07;;;3.70;;
4646;SDS011;2336;47.822;7.564;2023-03-31T03:43:12;5.13;;;4.60;;
4646;SDS011;2336;47.822;7.564;2023-03-31T03:45:38;6.10;;;4.23;;
4646;SDS011;2336;47.822;7.564;2023-03-31T03:48:05;5.43;;;4.70;;
4646;SDS011;2336;47.822;7.564;2023-03-31T03:50:35;7.37;;;3.90;;
4646;SDS011;2336;47.822;7.564;2023-03-31T03:53:02;4.90;;;3.93;;
4646;SDS011;2336;47.822;7.564;2023-03-31T03:55:29;4.20;;;3.90;;
4646;SDS011;2336;47.822;7.564;2023-03-31T03:57:56;4.33;;;3.93;;
4646;SDS011;2336;47.822;7.564;2023-03-31T04:00:22;4.87;;;4.30;;
4646;SDS011;2336;47.822;7.564;2023-03-31T04:02:49;4.73;;;3.90;;
4646;SDS011;2336;47.822;7.564;2023-03-31T04:05:16;5.30;;;4.40;;
4646;SDS011;2336;47.822;7.564;2023-03-31T04:07:44;8.20;;;4.80;;
4646;SDS011;2336;47.822;7.564;2023-03-31T04:10:11;4.67;;;4.20;;
4646;SDS011;2336;47.822;7.564;2023-03-31T04:12:38;5.13;;;4.20;;
4646;SDS011;2336;47.822;7.564;2023-03-31T04:15:05;7.07;;;4.63;;
4646;SDS011;2336;47.822;7.564;2023-03-31T04:17:32;5.47;;;3.90;;
4646;SDS011;2336;47.822;7.564;2023-03-31T04:20:01;6.70;;;4.43;;
4646;SDS011;2336;47.822;7.564;2023-03-31T04:22:33;7.13;;;4.50;;
4646;SDS011;2336;47.822;7.564;2023-03-31T04:25:07;7.80;;;4.77;;
4646;SDS011;2336;47.822;7.564;2023-03-31T04:27:38;5.00;;;4.60;;
4646;SDS011;2336;47.822;7.564;2023-03-31T04:30:11;4.63;;;4.20;;
4646;SDS011;2336;47.822;7.564;2023-03-31T04:32:46;5.93;;;4.73;;
4646;SDS011;2336;47.822;7.564;2023-03-31T04:35:14;7.00;;;5.40;;
4646;SDS011;2336;47.822;7.564;2023-03-31T04:37:41;6.53;;;5.00;;
4646;SDS011;2336;47.822;7.564;2023-03-31T04:40:10;7.07;;;5.27;;
4646;SDS011;2336;47.822;7.564;2023-03-31T04:42:37;5.50;;;5.00;;
4646;SDS011;2336;47.822;7.564;2023-03-31T04:45:04;7.30;;;5.13;;
4646;SDS011;2336;47.822;7.564;2023-03-31T04:47:31;7.83;;;6.03;;
4646;SDS011;2336;47.822;7.564;2023-03-31T04:49:58;5.80;;;4.80;;
4646;SDS011;2336;47.822;7.564;2023-03-31T04:52:24;9.00;;;5.87;;
4646;SDS011;2336;47.822;7.564;2023-03-31T04:54:51;10.73;;;7.13;;
4646;SDS011;2336;47.822;7.564;2023-03-31T04:57:19;8.17;;;6.53;;
4646;SDS011;2336;47.822;7.564;2023-03-31T04:59:46;8.30;;;6.30;;
4646;SDS011;2336;47.822;7.564;2023-03-31T05:02:13;20.90;;;8.73;;
4646;SDS011;2336;47.822;7.564;2023-03-31T05:04:47;9.40;;;8.03;;
4646;SDS011;2336;47.822;7.564;2023-03-31T05:07:14;11.90;;;8.23;;
4646;SDS011;2336;47.822;7.564;2023-03-31T05:09:41;18.27;;;9.80;;
4646;SDS011;2336;47.822;7.564;2023-03-31T05:12:08;13.50;;;9.80;;
4646;SDS011;2336;47.822;7.564;2023-03-31T05:14:36;14.67;;;9.80;;
4646;SDS011;2336;47.822;7.564;2023-03-31T05:17:03;10.50;;;7.70;;
4646;SDS011;2336;47.822;7.564;2023-03-31T05:19:29;19.07;;;9.73;;
4646;SDS011;2336;47.822;7.564;2023-03-31T05:21:56;15.50;;;8.77;;
4646;SDS011;2336;47.822;7.564;2023-03-31T05:24:23;22.93;;;13.43;;
4646;SDS011;2336;47.822;7.564;2023-03-31T05:26:52;13.33;;;8.23;;
4646;SDS011;2336;47.822;7.564;2023-03-31T05:29:20;22.40;;;11.30;;
4646;SDS011;2336;47.822;7.564;2023-03-31T05:31:48;14.43;;;11.17;;
4646;SDS011;2336;47.822;7.564;2023-03-31T05:34:15;11.00;;;8.50;;
4646;SDS011;2336;47.822;7.564;2023-03-31T05:36:41;13.93;;;7.93;;
4646;SDS011;2336;47.822;7.564;2023-03-31T05:39:08;7.97;;;7.17;;
4646;SDS011;2336;47.822;7.564;2023-03-31T05:41:35;13.90;;;8.50;;
4646;SDS011;2336;47.822;7.564;2023-03-31T05:44:02;16.90;;;8.40;;
4646;SDS011;2336;47.822;7.564;2023-03-31T05:46:29;9.70;;;7.03;;
4646;SDS011;2336;47.822;7.564;2023-03-31T05:48:57;15.97;;;9.83;;
4646;SDS011;2336;47.822;7.564;2023-03-31T05:51:23;13.00;;;10.80;;
4646;SDS011;2336;47.822;7.564;2023-03-31T05:53:50;9.60;;;6.90;;
4646;SDS011;2336;47.822;7.564;2023-03-31T05:56:17;11.90;;;7.87;;
4646;SDS011;2336;47.822;7.564;2023-03-31T05:58:43;15.07;;;10.40;;
4646;SDS011;2336;47.822;7.564;2023-03-31T06:01:11;10.03;;;8.93;;
4646;SDS011;2336;47.822;7.564;2023-03-31T06:03:44;9.80;;;5.67;;
4646;SDS011;2336;47.822;7.564;2023-03-31T06:06:12;7.23;;;5.97;;
4646;SDS011;2336;47.822;7.564;2023-03-31T06:08:40;7.53;;;6.30;;
4646;SDS011;2336;47.822;7.564;2023-03-31T06:11:08;6.57;;;5.93;;
4646;SDS011;2336;47.822;7.564;2023-03-31T06:13:37;8.57;;;4.90;;
4646;SDS011;2336;47.822;7.564;2023-03-31T06:16:05;6.07;;;4.00;;
4646;SDS011;2336;47.822;7.564;2023-03-31T06:18:32;10.63;;;3.30;;
4646;SDS011;2336;47.822;7.564;2023-03-31T06:21:00;5.17;;;4.70;;
4646;SDS011;2336;47.822;7.564;2023-03-31T06:23:28;6.50;;;4.73;;
4646;SDS011;2336;47.822;7.564;2023-03-31T06:25:58;17.80;;;9.90;;
4646;SDS011;2336;47.822;7.564;2023-03-31T06:28:26;5.23;;;4.73;;
4646;SDS011;2336;47.822;7.564;2023-03-31T06:30:58;5.80;;;3.80;;
4646;SDS011;2336;47.822;7.564;2023-03-31T06:33:26;20.17;;;12.50;;
4646;SDS011;2336;47.822;7.564;2023-03-31T06:35:54;8.63;;;7.83;;
4646;SDS011;2336;47.822;7.564;2023-03-31T06:38:21;10.10;;;6.80;;
4646;SDS011;2336;47.822;7.564;2023-03-31T06:40:49;17.57;;;8.57;;
4646;SDS011;2336;47.822;7.564;2023-03-31T06:43:16;13.03;;;8.10;;
4646;SDS011;2336;47.822;7.564;2023-03-31T06:45:42;5.60;;;4.77;;
4646;SDS011;2336;47.822;7.564;2023-03-31T06:48:09;7.93;;;5.80;;
4646;SDS011;2336;47.822;7.564;2023-03-31T06:50:36;6.37;;;5.73;;
4646;SDS011;2336;47.822;7.564;2023-03-31T06:53:03;8.03;;;7.23;;
4646;SDS011;2336;47.822;7.564;2023-03-31T06:55:30;4.77;;;4.47;;
4646;SDS011;2336;47.822;7.564;2023-03-31T06:57:59;8.97;;;5.43;;
4646;SDS011;2336;47.822;7.564;2023-03-31T07:00:25;4.27;;;3.90;;
4646;SDS011;2336;47.822;7.564;2023-03-31T07:02:52;6.30;;;4.60;;
4646;SDS011;2336;47.822;7.564;2023-03-31T07:05:19;12.67;;;7.60;;
4646;SDS011;2336;47.822;7.564;2023-03-31T07:07:50;17.13;;;9.00;;
4646;SDS011;2336;47.822;7.564;2023-03-31T07:10:17;15.77;;;7.00;;
4646;SDS011;2336;47.822;7.564;2023-03-31T07:12:44;11.90;;;5.93;;
4646;SDS011;2336;47.822;7.564;2023-03-31T07:15:12;9.00;;;5.87;;
4646;SDS011;2336;47.822;7.564;2023-03-31T07:17:39;3.67;;;2.73;;
4646;SDS011;2336;47.822;7.564;2023-03-31T07:20:06;4.20;;;3.80;;
4646;SDS011;2336;47.822;7.564;2023-03-31T07:22:36;4.60;;;4.30;;
4646;SDS011;2336;47.822;7.564;2023-03-31T07:25:05;4.30;;;3.43;;
4646;SDS011;2336;47.822;7.564;2023-03-31T07:27:32;9.77;;;4.90;;
4646;SDS011;2336;47.822;7.564;2023-03-31T07:29:59;3.40;;;3.07;;
4646;SDS011;2336;47.822;7.564;2023-03-31T07:32:28;5.33;;;3.40;;
4646;SDS011;2336;47.822;7.564;2023-03-31T07:34:54;3.13;;;2.80;;
4646;SDS011;2336;47.822;7.564;2023-03-31T07:37:21;4.83;;;3.30;;
4646;SDS011;2336;47.822;7.564;2023-03-31T07:39:48;4.33;;;4.03;;
4646;SDS011;2336;47.822;7.564;2023-03-31T07:42:15;3.60;;;2.83;;
4646;SDS011;2336;47.822;7.564;2023-03-31T07:44:41;4.10;;;3.23;;
4646;SDS011;2336;47.822;7.564;2023-03-31T07:47:08;4.50;;;3.20;;
4646;SDS011;2336;47.822;7.564;2023-03-31T07:49:36;5.27;;;2.50;;
4646;SDS011;2336;47.822;7.564;2023-03-31T07:52:03;7.40;;;2.60;;
4646;SDS011;2336;47.822;7.564;2023-03-31T07:54:30;5.33;;;2.73;;
4646;SDS011;2336;47.822;7.564;2023-03-31T07:56:57;5.37;;;2.03;;
4646;SDS011;2336;47.822;7.564;2023-03-31T07:59:25;8.03;;;2.93;;
4646;SDS011;2336;47.822;7.564;2023-03-31T08:01:52;6.10;;;2.80;;
4646;SDS011;2336;47.822;7.564;2023-03-31T08:04:19;7.23;;;2.50;;
4646;SDS011;2336;47.822;7.564;2023-03-31T08:06:47;4.40;;;1.97;;
4646;SDS011;2336;47.822;7.564;2023-03-31T08:09:15;6.20;;;2.40;;
4646;SDS011;2336;47.822;7.564;2023-03-31T08:11:42;7.13;;;2.13;;
4646;SDS011;2336;47.822;7.564;2023-03-31T08:14:09;4.00;;;1.63;;
4646;SDS011;2336;47.822;7.564;2023-03-31T08:16:36;2.77;;;1.20;;
4646;SDS011;2336;47.822;7.564;2023-03-31T08:19:02;2.60;;;1.67;;
4646;SDS011;2336;47.822;7.564;2023-03-31T08:21:29;5.70;;;2.00;;
4646;SDS011;2336;47.822;7.564;2023-03-31T08:23:57;5.50;;;1.80;;
4646;SDS011;2336;47.822;7.564;2023-03-31T08:26:24;2.53;;;1.23;;
4646;SDS011;2336;47.822;7.564;2023-03-31T08:28:51;6.47;;;1.50;;
4646;SDS011;2336;47.822;7.564;2023-03-31T08:31:19;2.77;;;1.60;;
4646;SDS011;2336;47.822;7.564;2023-03-31T08:33:48;3.57;;;2.00;;
4646;SDS011;2336;47.822;7.564;2023-03-31T08:36:15;3.63;;;1.40;;
4646;SDS011;2336;47.822;7.564;2023-03-31T08:38:42;3.53;;;1.60;;
4646;SDS011;2336;47.822;7.564;2023-03-31T08:41:14;3.63;;;1.30;;
4646;SDS011;2336;47.822;7.564;2023-03-31T08:43:51;1.60;;;1.40;;
4646;SDS011;2336;47.822;7.564;2023-03-31T08:46:21;2.13;;;1.30;;
4646;SDS011;2336;47.822;7.564;2023-03-31T08:48:49;5.33;;;1.43;;
4646;SDS011;2336;47.822;7.564;2023-03-31T08:51:19;2.07;;;1.23;;
4646;SDS011;2336;47.822;7.564;2023-03-31T08:53:49;1.37;;;1.20;;
4646;SDS011;2336;47.822;7.564;2023-03-31T08:56:24;1.67;;;1.27;;
4646;SDS011;2336;47.822;7.564;2023-03-31T08:58:52;1.57;;;1.23;;
4646;SDS011;2336;47.822;7.564;2023-03-31T09:01:21;1.80;;;1.10;;
4646;SDS011;2336;47.822;7.564;2023-03-31T09:04:01;1.10;;;1.00;;
4646;SDS011;2336;47.822;7.564;2023-03-31T09:06:37;1.93;;;1.40;;
4646;SDS011;2336;47.822;7.564;2023-03-31T09:09:09;1.43;;;1.00;;
4646;SDS011;2336;47.822;7.564;2023-03-31T09:11:42;1.43;;;1.07;;
4646;SDS011;2336;47.822;7.564;2023-03-31T09:17:06;3.70;;;1.20;;
4646;SDS011;2336;47.822;7.564;2023-03-31T09:19:40;3.73;;;1.43;;
4646;SDS011;2336;47.822;7.564;2023-03-31T09:22:12;3.77;;;1.40;;
4646;SDS011;2336;47.822;7.564;2023-03-31T09:24:45;4.40;;;1.20;;
4646;SDS011;2336;47.822;7.564;2023-03-31T09:27:18;4.07;;;1.90;;
4646;SDS011;2336;47.822;7.564;2023-03-31T09:29:46;2.93;;;1.17;;
4646;SDS011;2336;47.822;7.564;2023-03-31T09:32:18;2.10;;;1.50;;
4646;SDS011;2336;47.822;7.564;2023-03-31T09:34:46;4.30;;;1.63;;
4646;SDS011;2336;47.822;7.564;2023-03-31T09:37:18;3.13;;;1.57;;
4646;SDS011;2336;47.822;7.564;2023-03-31T09:39:45;4.90;;;1.30;;
4646;SDS011;2336;47.822;7.564;2023-03-31T09:42:12;1.30;;;1.10;;
4646;SDS011;2336;47.822;7.564;2023-03-31T09:44:42;4.10;;;1.77;;
4646;SDS011;2336;47.822;7.564;2023-03-31T09:47:10;1.47;;;1.10;;
4646;SDS011;2336;47.822;7.564;2023-03-31T09:49:43;3.23;;;1.60;;
4646;SDS011;2336;47.822;7.564;2023-03-31T09:52:13;2.73;;;1.40;;
4646;SDS011;2336;47.822;7.564;2023-03-31T09:54:47;2.87;;;1.53;;
4646;SDS011;2336;47.822;7.564;2023-03-31T09:57:22;6.90;;;1.30;;
4646;SDS011;2336;47.822;7.564;2023-03-31T09:59:52;6.63;;;2.37;;
4646;SDS011;2336;47.822;7.564;2023-03-31T10:02:28;5.93;;;1.50;;
4646;SDS011;2336;47.822;7.564;2023-03-31T10:05:02;2.03;;;1.23;;
4646;SDS011;2336;47.822;7.564;2023-03-31T10:07:30;5.40;;;1.87;;
4646;SDS011;2336;47.822;7.564;2023-03-31T10:09:59;2.07;;;1.10;;
4646;SDS011;2336;47.822;7.564;2023-03-31T10:12:27;4.10;;;1.23;;
4646;SDS011;2336;47.822;7.564;2023-03-31T10:15:02;2.80;;;1.10;;
4646;SDS011;2336;47.822;7.564;2023-03-31T10:17:43;3.60;;;1.20;;
4646;SDS011;2336;47.822;7.564;2023-03-31T10:20:17;5.70;;;1.00;;
4646;SDS011;2336;47.822;7.564;2023-03-31T10:22:46;4.07;;;1.20;;
4646;SDS011;2336;47.822;7.564;2023-03-31T10:25:14;1.57;;;1.10;;
4646;SDS011;2336;47.822;7.564;2023-03-31T10:27:43;4.20;;;1.17;;
4646;SDS011;2336;47.822;7.564;2023-03-31T10:30:17;4.13;;;1.37;;
4646;SDS011;2336;47.822;7.564;2023-03-31T10:32:47;1.43;;;1.20;;
4646;SDS011;2336;47.822;7.564;2023-03-31T10:35:21;3.77;;;1.10;;
4646;SDS011;2336;47.822;7.564;2023-03-31T10:37:53;3.73;;;1.50;;
4646;SDS011;2336;47.822;7.564;2023-03-31T10:40:23;2.40;;;1.40;;
4646;SDS011;2336;47.822;7.564;2023-03-31T10:42:59;4.20;;;1.43;;
4646;SDS011;2336;47.822;7.564;2023-03-31T10:45:35;3.50;;;1.60;;
4646;SDS011;2336;47.822;7.564;2023-03-31T10:48:03;1.57;;;1.40;;
4646;SDS011;2336;47.822;7.564;2023-03-31T10:50:31;4.50;;;1.20;;
4646;SDS011;2336;47.822;7.564;2023-03-31T10:53:00;2.47;;;1.37;;
4646;SDS011;2336;47.822;7.564;2023-03-31T10:55:31;2.93;;;1.63;;
4646;SDS011;2336;47.822;7.564;2023-03-31T10:58:02;1.43;;;1.10;;
4646;SDS011;2336;47.822;7.564;2023-03-31T11:00:39;3.03;;;1.13;;
4646;SDS011;2336;47.822;7.564;2023-03-31T11:06:12;4.83;;;1.47;;
4646;SDS011;2336;47.822;7.564;2023-03-31T11:08:48;4.90;;;1.60;;
4646;SDS011;2336;47.822;7.564;2023-03-31T11:11:30;3.23;;;1.17;;
4646;SDS011;2336;47.822;7.564;2023-03-31T11:14:10;2.03;;;1.13;;
4646;SDS011;2336;47.822;7.564;2023-03-31T11:16:46;2.40;;;1.00;;
4646;SDS011;2336;47.822;7.564;2023-03-31T11:19:24;4.60;;;1.80;;
4646;SDS011;2336;47.822;7.564;2023-03-31T11:22:04;6.63;;;1.63;;
4646;SDS011;2336;47.822;7.564;2023-03-31T11:24:44;3.10;;;1.50;;
4646;SDS011;2336;47.822;7.564;2023-03-31T11:27:37;2.00;;;1.00;;
4646;SDS011;2336;47.822;7.564;2023-03-31T11:30:18;7.00;;;2.00;;
4646;SDS011;2336;47.822;7.564;2023-03-31T11:32:55;2.13;;;1.00;;
4646;SDS011;2336;47.822;7.564;2023-03-31T11:35:44;8.40;;;1.07;;
4646;SDS011;2336;47.822;7.564;2023-03-31T11:38:28;1.70;;;0.80;;
4646;SDS011;2336;47.822;7.564;2023-03-31T11:41:04;0.80;;;0.60;;
4646;SDS011;2336;47.822;7.564;2023-03-31T11:43:37;0.77;;;0.57;;
4646;SDS011;2336;47.822;7.564;2023-03-31T11:46:09;5.63;;;0.53;;
4646;SDS011;2336;47.822;7.564;2023-03-31T11:48:42;0.50;;;0.50;;
4646;SDS011;2336;47.822;7.564;2023-03-31T11:51:14;1.43;;;0.70;;
4646;SDS011;2336;47.822;7.564;2023-03-31T11:53:44;1.63;;;0.70;;
4646;SDS011;2336;47.822;7.564;2023-03-31T11:56:13;1.80;;;0.60;;
4646;SDS011;2336;47.822;7.564;2023-03-31T11:58:43;1.43;;;0.70;;
4646;SDS011;2336;47.822;7.564;2023-03-31T12:01:14;1.90;;;0.70;;
4646;SDS011;2336;47.822;7.564;2023-03-31T12:03:49;1.13;;;0.80;;
4646;SDS011;2336;47.822;7.564;2023-03-31T12:06:21;0.60;;;0.60;;
4646;SDS011;2336;47.822;7.564;2023-03-31T12:09:00;1.47;;;0.70;;
4646;SDS011;2336;47.822;7.564;2023-03-31T12:11:32;4.87;;;0.90;;
4646;SDS011;2336;47.822;7.564;2023-03-31T12:14:05;1.93;;;0.87;;
4646;SDS011;2336;47.822;7.564;2023-03-31T12:16:45;1.77;;;0.70;;
4646;SDS011;2336;47.822;7.564;2023-03-31T12:19:19;3.73;;;0.73;;
4646;SDS011;2336;47.822;7.564;2023-03-31T12:21:52;3.27;;;0.80;;
4646;SDS011;2336;47.822;7.564;2023-03-31T12:24:21;2.00;;;0.90;;
4646;SDS011;2336;47.822;7.564;2023-03-31T12:26:50;2.83;;;0.73;;
4646;SDS011;2336;47.822;7.564;2023-03-31T12:29:28;1.33;;;0.77;;
4646;SDS011;2336;47.822;7.564;2023-03-31T12:31:58;1.00;;;0.87;;
4646;SDS011;2336;47.822;7.564;2023-03-31T12:34:31;8.30;;;1.40;;
4646;SDS011;2336;47.822;7.564;2023-03-31T12:37:07;3.33;;;1.17;;
4646;SDS011;2336;47.822;7.564;2023-03-31T12:39:51;2.07;;;1.00;;
4646;SDS011;2336;47.822;7.564;2023-03-31T12:42:33;1.87;;;1.10;;
4646;SDS011;2336;47.822;7.564;2023-03-31T12:45:10;1.37;;;1.10;;
4646;SDS011;2336;47.822;7.564;2023-03-31T12:47:48;2.40;;;1.43;;
4646;SDS011;2336;47.822;7.564;2023-03-31T12:50:34;8.80;;;1.63;;
4646;SDS011;2336;47.822;7.564;2023-03-31T12:53:11;3.93;;;1.37;;
4646;SDS011;2336;47.822;7.564;2023-03-31T12:55:47;1.70;;;1.10;;
4646;SDS011;2336;47.822;7.564;2023-03-31T13:01:04;5.53;;;1.37;;
4646;SDS011;2336;47.822;7.564;2023-03-31T13:03:35;3.00;;;1.07;;
4646;SDS011;2336;47.822;7.564;2023-03-31T13:09:42;2.00;;;1.30;;
4646;SDS011;2336;47.822;7.564;2023-03-31T13:12:16;1.17;;;0.93;;
4646;SDS011;2336;47.822;7.564;2023-03-31T13:14:48;3.70;;;1.43;;
4646;SDS011;2336;47.822;7.564;2023-03-31T13:20:17;4.63;;;1.80;;
4646;SDS011;2336;47.822;7.564;2023-03-31T13:22:58;6.63;;;2.30;;
4646;SDS011;2336;47.822;7.564;2023-03-31T13:28:15;4.10;;;1.43;;
4646;SDS011;2336;47.822;7.564;2023-03-31T13:30:50;1.80;;;1.00;;
4646;SDS011;2336;47.822;7.564;2023-03-31T13:33:35;1.93;;;0.80;;
4646;SDS011;2336;47.822;7.564;2023-03-31T13:36:13;1.60;;;0.90;;
4646;SDS011;2336;47.822;7.564;2023-03-31T13:39:05;1.83;;;0.80;;
4646;SDS011;2336;47.822;7.564;2023-03-31T13:41:45;7.20;;;1.10;;
4646;SDS011;2336;47.822;7.564;2023-03-31T13:44:27;2.50;;;0.90;;
4646;SDS011;2336;47.822;7.564;2023-03-31T13:50:35;1.13;;;0.60;;
4646;SDS011;2336;47.822;7.564;2023-03-31T13:53:15;3.43;;;0.90;;
4646;SDS011;2336;47.822;7.564;2023-03-31T13:56:08;1.90;;;1.00;;
4646;SDS011;2336;47.822;7.564;2023-03-31T13:58:50;1.77;;;0.80;;
4646;SDS011;2336;47.822;7.564;2023-03-31T14:01:55;3.90;;;0.90;;
4646;SDS011;2336;47.822;7.564;2023-03-31T14:04:52;6.90;;;1.33;;
4646;SDS011;2336;47.822;7.564;2023-03-31T14:07:27;8.30;;;1.40;;
4646;SDS011;2336;47.822;7.564;2023-03-31T14:09:58;2.70;;;1.00;;
4646;SDS011;2336;47.822;7.564;2023-03-31T14:12:29;4.83;;;1.93;;
4646;SDS011;2336;47.822;7.564;2023-03-31T14:14:58;1.30;;;1.20;;
4646;SDS011;2336;47.822;7.564;2023-03-31T14:17:26;1.73;;;0.80;;
4646;SDS011;2336;47.822;7.564;2023-03-31T14:20:04;1.70;;;1.10;;
4646;SDS011;2336;47.822;7.564;2023-03-31T14:22:48;8.17;;;1.47;;
4646;SDS011;2336;47.822;7.564;2023-03-31T14:25:25;5.17;;;1.60;;
4646;SDS011;2336;47.822;7.564;2023-03-31T14:28:03;1.07;;;0.80;;
4646;SDS011;2336;47.822;7.564;2023-03-31T14:30:46;1.57;;;1.00;;
4646;SDS011;2336;47.822;7.564;2023-03-31T14:33:25;2.43;;;1.20;;
4646;SDS011;2336;47.822;7.564;2023-03-31T14:36:02;2.70;;;1.10;;
4646;SDS011;2336;47.822;7.564;2023-03-31T14:38:36;9.93;;;1.87;;
4646;SDS011;2336;47.822;7.564;2023-03-31T14:41:03;7.23;;;1.40;;
4646;SDS011;2336;47.822;7.564;2023-03-31T14:43:31;4.53;;;1.07;;
4646;SDS011;2336;47.822;7.564;2023-03-31T14:46:02;4.53;;;1.47;;
4646;SDS011;2336;47.822;7.564;2023-03-31T14:48:31;5.10;;;1.87;;
4646;SDS011;2336;47.822;7.564;2023-03-31T14:51:00;5.80;;;1.20;;
4646;SDS011;2336;47.822;7.564;2023-03-31T14:53:28;4.00;;;1.37;;
4646;SDS011;2336;47.822;7.564;2023-03-31T14:55:57;3.73;;;1.10;;
4646;SDS011;2336;47.822;7.564;2023-03-31T14:58:31;3.77;;;1.20;;
4646;SDS011;2336;47.822;7.564;2023-03-31T15:01:02;2.03;;;1.10;;
4646;SDS011;2336;47.822;7.564;2023-03-31T15:03:31;4.30;;;1.27;;
4646;SDS011;2336;47.822;7.564;2023-03-31T15:06:00;6.80;;;1.50;;
4646;SDS011;2336;47.822;7.564;2023-03-31T15:08:30;4.97;;;1.17;;
4646;SDS011;2336;47.822;7.564;2023-03-31T15:10:58;2.40;;;1.10;;
4646;SDS011;2336;47.822;7.564;2023-03-31T15:13:29;4.33;;;1.50;;
4646;SDS011;2336;47.822;7.564;2023-03-31T15:15:59;7.00;;;1.27;;
4646;SDS011;2336;47.822;7.564;2023-03-31T15:18:45;2.23;;;0.93;;
4646;SDS011;2336;47.822;7.564;2023-03-31T15:21:17;0.60;;;0.60;;
4646;SDS011;2336;47.822;7.564;2023-03-31T15:23:45;2.70;;;1.00;;
4646;SDS011;2336;47.822;7.564;2023-03-31T15:26:12;5.60;;;0.70;;
4646;SDS011;2336;47.822;7.564;2023-03-31T15:28:43;2.70;;;1.00;;
4646;SDS011;2336;47.822;7.564;2023-03-31T15:31:17;1.00;;;0.90;;
4646;SDS011;2336;47.822;7.564;2023-03-31T15:33:45;2.10;;;0.97;;
4646;SDS011;2336;47.822;7.564;2023-03-31T15:36:12;2.57;;;0.73;;
4646;SDS011;2336;47.822;7.564;2023-03-31T15:38:39;2.87;;;1.17;;
4646;SDS011;2336;47.822;7.564;2023-03-31T15:41:10;2.27;;;1.30;;
4646;SDS011;2336;47.822;7.564;2023-03-31T15:43:41;2.10;;;0.90;;
4646;SDS011;2336;47.822;7.564;2023-03-31T15:46:15;2.67;;;1.40;;
4646;SDS011;2336;47.822;7.564;2023-03-31T15:48:49;1.00;;;0.70;;
4646;SDS011;2336;47.822;7.564;2023-03-31T15:51:18;2.80;;;1.17;;
4646;SDS011;2336;47.822;7.564;2023-03-31T15:53:50;0.87;;;0.87;;
4646;SDS011;2336;47.822;7.564;2023-03-31T15:56:27;2.00;;;1.00;;
4646;SDS011;2336;47.822;7.564;2023-03-31T15:58:56;1.27;;;0.90;;
4646;SDS011;2336;47.822;7.564;2023-03-31T16:01:26;2.07;;;1.00;;
4646;SDS011;2336;47.822;7.564;2023-03-31T16:03:58;2.77;;;0.93;;
4646;SDS011;2336;47.822;7.564;2023-03-31T16:06:34;1.00;;;0.90;;
4646;SDS011;2336;47.822;7.564;2023-03-31T16:09:07;1.03;;;0.80;;